This is the latest recevied weather packets stored in our database for station/object KA5ZCI. If no packets are shown the sender has not sent any weather packets the latest 10 day(s).
| Time | Temp. | Humidity | Pressure | Rain* | Wind** | Luminosity | Snow |
|---|---|---|---|---|---|---|---|
| 1778008804 | 29.44° C | 53% | 1012.4 hPa | 0 mm | - | 0 W/m² | - |
| 1778007304 | 29.44° C | 53% | 1012.8 hPa | 0 mm | - | 0 W/m² | - |
| 1778004904 | 28.33° C | 54% | 1012.9 hPa | 0 mm | - | 0 W/m² | - |
| 1778004304 | 28.33° C | 53% | 1013.2 hPa | 0 mm | - | 0 W/m² | - |
| 1778004004 | 28.89° C | 52% | 1013.3 hPa | 0 mm | - | 0 W/m² | - |
| 1778003104 | 28.33° C | 53% | 1013.2 hPa | 0 mm | - | 0 W/m² | - |
| 1778001904 | 28.33° C | 54% | 1013.5 hPa | 0 mm | - | 0 W/m² | - |
| 1778000704 | 27.78° C | 52% | 1013.8 hPa | 0 mm | - | 0 W/m² | - |
| 1777995304 | 26.67° C | 58% | 1013.7 hPa | 0 mm | - | 0 W/m² | - |
| 1777994704 | 26.11° C | 61% | 1013.6 hPa | 0 mm | - | 0 W/m² | - |
| 1777993204 | 25° C | 63% | 1013.7 hPa | 0 mm | - | 0 W/m² | - |
| 1777990804 | 24.44° C | 65% | 1013.6 hPa | 0 mm | - | 0 W/m² | - |
| 1777989304 | 23.33° C | 70% | 1013.6 hPa | 0 mm | - | 0 W/m² | - |
| 1777986304 | 21.67° C | 79% | 1013.3 hPa | 0 mm | - | 0 W/m² | - |
| 1777986004 | 21.11° C | 80% | 1013.2 hPa | 0 mm | - | 0 W/m² | - |
| 1777985404 | 21.11° C | 83% | 1013.4 hPa | 0 mm | - | 0 W/m² | - |
| 1777978503 | 16.67° C | 92% | 1012.8 hPa | 0 mm | - | 0 W/m² | - |
| 1777978204 | 16.67° C | 92% | 1012.7 hPa | 0 mm | - | 0 W/m² | - |
| 1777976103 | 16.11° C | 91% | 1012.9 hPa | 0 mm | - | 0 W/m² | - |
| 1777972804 | 15.56° C | 92% | 1012.9 hPa | 0 mm | - | 0 W/m² | - |
| 1777970704 | 15.56° C | 90% | 1012.7 hPa | 0 mm | - | 0 W/m² | - |
| 1777969203 | 16.11° C | 89% | 1012.7 hPa | 0 mm | - | 0 W/m² | - |
| 1777960504 | 16.11° C | 87% | 1014.1 hPa | 0 mm | - | 0 W/m² | - |
| 1777959904 | 16.11° C | 87% | 1014.1 hPa | 0 mm | - | 0 W/m² | - |
| 1777958103 | 17.22° C | 81% | 1013.9 hPa | 0 mm | - | 0 W/m² | - |
* Rain latest hour (hover to see other rain measurements)
** Current wind speed in m/s (hover to see current wind gust speed)